Main page
METAR-TAF:

METAR-TAF

Airports :

Pruniers

Romorantin, France

latitude: 47-19N, longitude: 001-41E, elevation: 85 m

Current weather observation

The report was made 17 minutes ago, at 09:30 UTC
Wind 5 kt from the West/Northwest, varying between West and North
Temperature 13°C
Humidity 94%
Pressure 1008 hPa
Visibility: 4900 m
Broken clouds at a height of 900 ft
Overcast at a height of 1300 ft
mist

METAR: LFYR 190930Z AUTO 30005KT 260V360 4900 BR BKN009 OVC013 13/12 Q1008

Time: 11:47 (09:47 UTC)


TAF: missing

Weather observations and forecasts of more than 4000 airports (METAR and TAF reports).

The available stations are represented by yellow and red dots on the map.

Hover mouse over dot to see the name of the station.

Then click to see weather observations and forecasts.

To change the map : click on the green buttons with a black cross to zoom in, on the green button with a dash to zoom out, or on the green arrows for adjacent maps.


METAR-TAF: